Islip, NY

11:36 PM EDT on May 01, 2016 (GMT -0400)
East Islip | | Change Station

Elev 20 ft 40.72 °N, 73.18 °W | Updated 1 second ago

Overcast
Overcast
44.6 °F
Feels Like 43 °F
N
3.7
Wind Variable Wind from NW

Today
High -- | Low -- °F
--% Chance of Precip.
Yesterday
High -- | Low -- °F
Precip. -- in
Pressure 30.07 in
Visibility 4.0 miles
Clouds Overcast 400 ft
Windchill 43 °F
Dew Point 44 °F
Humidity 96%
Rainfall 0.23 in
Snow Depth Not available.
5:50 AM 7:49 PM
Waning Crescent, 29% visible
METAR KISP 020256Z 07004KT 4SM -DZ BR OVC004 07/06 A3007 RMK AO2 SLP181 P0000 60001 T00720056 58014
Pressure 30.07 in
Visibility 4.0 miles
Clouds Overcast 400 ft
Windchill 43 °F
Dew Point 44 °F
Humidity 96%
Rainfall 0.23 in
Snow Depth Not available.
5:50 AM 7:49 PM
Waning Crescent, 29% visible
METAR KISP 020256Z 07004KT 4SM -DZ BR OVC004 07/06 A3007 RMK AO2 SLP181 P0000 60001 T00720056 58014

10-Day Weather Forecast

Almanac

Astronomy

May. 01, 2016 Rise Set
Actual Time
Civil Twilight
Nautical Twilight
Astronomical Twilight
Moon
Length of Visible Light
Length of Day
Tomorrow will be .
, % of the Moon is Illuminated

Today's Extremes

State Highs State Lows

Community

WunderPhotos

Upload Photos

1,909,348 photos uploaded!

WunderBlog® & News

Nearby

Air Quality

  Air Quality AQ Index Pollutant
Not available.

Snow Depth

Station Depth Elevation

Earthquake Activity

City Distance Mag. Time & Date
Minimum magnitude displayed is 2.5.

Coastal Water Temperatures

Place Temperature

Stations

Nearby Weather Stations

Station Location Temp. Windchill Dew Point Humidity Wind Precip. Elev Updated Type
                   

Watches & Warnings

There are currently no watches in effect.